Página principal
METAR-TAF:

METAR-TAF

Aeroportos :

Jidá, Arábia Saudita

Aeroporto Internacional Rei Abdulaziz

latitude: 21-42N, longitude: 039-11E, altura: 15 m

Observação actual do tempo

O boletim foi feito há 38 minutos, às 23:00 UTC
Vento 4 kt de norte
Temperatura 26°C
Humidade 79%
Pressão 1009 hPa
Visibilidade 10 km ou mais
sem nuvens abaixo de 1500 metros e sem cumulonimbus

METAR: OEJN 192300Z 35004KT CAVOK 26/22 Q1009 NOSIG

Hora: 02:38 (23:38 UTC)

Previsão

O boletim foi feito há 6 horas e 38 minutos, às 17:00 UTC
Previsão válida de 19 às 18 UTC a 20 às 24 UTC
Vento 10 kt de norte
Visibilidade 10 km ou mais
sem nuvens abaixo de 1500 metros e sem cumulonimbus
Tornando-se
de 20 às 06 UTC a 20 às 08 UTC
Vento 8 kt de oes-sudoeste

TAF: OEJN 191700Z 1918/2024 01010KT CAVOK BECMG 2006/2008 24008KT

Observações e previsões do tempo de mais de 4000 aeroportos (mensagens METAR e TAF).

As estações disponíveis são os pontos amarelos e vermelhos sobre o mapa.

Mova o rato sobre o mapa para ver o nome da estação.

Depois clique no ponto para visualizar as observações e previsões meteorológicas.

Para alterar o mapa : clique nos botões verdes com uma cruz preta para aumentar o zoom; no botão verde com uma pitada de zoom; ou nas setas verdes para mapas adjacentes.


METAR-TAF: